Terminal Aerodrome Forecast
Issued by NWS Twin Cities, MN

Home | Current Version | Previous Version | Text Only | Print | Product List | Glossary On
Versions: 1 2 3 4 5 6 7 8 9 10 11 12 13 14 15 16 17 18 19 20 21 22 23 24 25 26 27 28 29
427
FTUS43 KMPX 291735
TAFMSP
TAF
KMSP 291735Z 2918/3024 02009KT P6SM FEW030
     FM292200 05008KT P6SM SKC
     FM301200 06012G18KT P6SM SCT250
     FM301600 07019G28KT P6SM BKN200=

USA.gov is the U.S. government's official web portal to all federal, state and local government web resources and services.